createdAt,value
2019-02-23T00:00:08.583Z,3.60
2019-02-23T00:02:34.678Z,3.70
2019-02-23T00:05:00.767Z,3.80
2019-02-23T00:07:26.848Z,3.90
2019-02-23T00:09:52.932Z,3.90
2019-02-23T00:12:19.000Z,3.80
2019-02-23T00:14:45.097Z,3.80
2019-02-23T00:17:11.260Z,3.60
2019-02-23T00:19:37.336Z,3.50
2019-02-23T00:22:03.431Z,3.50
2019-02-23T00:24:29.491Z,3.30
2019-02-23T00:26:55.589Z,3.20
2019-02-23T00:29:21.659Z,3.10
2019-02-23T00:31:47.759Z,3.00
2019-02-23T00:34:13.847Z,2.90
2019-02-23T00:36:39.916Z,2.90
2019-02-23T00:39:06.103Z,2.90
2019-02-23T00:41:32.188Z,2.90
2019-02-23T00:47:26.755Z,2.90
2019-02-23T00:49:52.851Z,2.90
2019-02-23T00:52:18.962Z,2.80
2019-02-23T00:54:45.156Z,2.90
2019-02-23T00:57:11.322Z,2.90
2019-02-23T00:59:37.390Z,3.00
2019-02-23T01:02:03.459Z,3.00
2019-02-23T01:04:29.579Z,2.90
2019-02-23T01:06:56.472Z,2.90
2019-02-23T01:09:22.559Z,2.90
2019-02-23T01:11:48.627Z,2.80
2019-02-23T01:14:14.732Z,2.80
2019-02-23T01:16:40.796Z,2.80
2019-02-23T01:19:06.883Z,2.70
2019-02-23T01:21:32.959Z,2.70
2019-02-23T01:23:59.059Z,2.80
2019-02-23T01:26:25.136Z,2.80
2019-02-23T01:28:51.230Z,2.80
2019-02-23T01:31:17.400Z,2.90
2019-02-23T01:33:43.488Z,2.90
2019-02-23T01:36:09.543Z,4.30
2019-02-23T01:38:35.619Z,2.90
2019-02-23T01:41:01.690Z,2.90
2019-02-23T01:43:27.761Z,2.80
2019-02-23T01:45:53.848Z,2.70
2019-02-23T01:48:19.927Z,2.70
2019-02-23T01:50:46.028Z,2.90
2019-02-23T01:53:12.212Z,2.50
2019-02-23T01:55:38.323Z,2.40
2019-02-23T01:58:04.394Z,2.30
2019-02-23T02:00:31.286Z,2.30
2019-02-23T02:02:57.390Z,2.30
2019-02-23T02:05:23.471Z,2.20
2019-02-23T02:07:49.542Z,2.10
2019-02-23T02:10:16.251Z,2.10
2019-02-23T02:12:42.531Z,2.20
2019-02-23T02:15:11.115Z,2.20
2019-02-23T02:17:37.182Z,2.20
2019-02-23T02:20:11.060Z,2.00
2019-02-23T02:22:32.050Z,2.10
2019-02-23T02:24:58.131Z,2.00
2019-02-23T02:27:24.198Z,2.10
2019-02-23T02:29:50.318Z,2.10
2019-02-23T02:32:16.442Z,2.00
2019-02-23T02:34:42.523Z,1.90
2019-02-23T02:37:08.580Z,1.90
2019-02-23T02:39:34.675Z,1.90
2019-02-23T02:42:00.804Z,1.90
2019-02-23T02:44:26.872Z,1.90
2019-02-23T02:46:52.948Z,1.80
2019-02-23T02:49:19.028Z,1.80
2019-02-23T02:51:45.214Z,1.80
2019-02-23T02:54:11.282Z,1.80
2019-02-23T02:56:37.471Z,1.80
2019-02-23T02:59:03.536Z,1.80
2019-02-23T03:01:29.622Z,1.70
2019-02-23T03:03:55.688Z,1.80
2019-02-23T03:06:21.771Z,1.70
2019-02-23T03:08:47.845Z,1.70
2019-02-23T03:11:13.920Z,1.70
2019-02-23T03:13:39.978Z,1.70
2019-02-23T03:16:06.066Z,1.50
2019-02-23T03:18:32.146Z,1.50
2019-02-23T03:20:58.311Z,1.30
2019-02-23T03:23:24.399Z,1.20
2019-02-23T03:25:50.507Z,1.10
2019-02-23T03:28:16.662Z,1.00
2019-02-23T03:30:42.764Z,0.90
2019-02-23T03:33:08.912Z,0.80
2019-02-23T03:35:34.991Z,0.90
2019-02-23T03:38:01.065Z,0.80
2019-02-23T03:40:27.149Z,0.80
2019-02-23T03:42:53.221Z,0.70
2019-02-23T03:45:19.302Z,0.60
2019-02-23T03:47:45.380Z,0.50
2019-02-23T03:50:11.455Z,0.50
2019-02-23T03:52:37.567Z,0.40
2019-02-23T03:55:04.153Z,0.30
2019-02-23T03:57:30.239Z,0.20
2019-02-23T03:59:56.304Z,0.20
2019-02-23T04:02:22.430Z,0.20
2019-02-23T04:04:48.495Z,0.10
2019-02-23T04:07:14.696Z,0.00
2019-02-23T04:09:40.759Z,-0.10
2019-02-23T04:12:06.854Z,0.00
2019-02-23T04:14:32.927Z,0.00
2019-02-23T04:16:59.004Z,-0.10
2019-02-23T04:19:25.075Z,-0.10
2019-02-23T04:21:51.159Z,-0.10
2019-02-23T04:24:17.223Z,-0.10
2019-02-23T04:26:43.310Z,-0.10
2019-02-23T04:29:09.389Z,-0.20
2019-02-23T04:31:35.466Z,-0.30
2019-02-23T04:34:01.536Z,-0.40
2019-02-23T04:36:27.619Z,-0.30
2019-02-23T04:38:53.704Z,-0.30
2019-02-23T04:41:19.798Z,-0.40
2019-02-23T04:43:45.892Z,-0.50
2019-02-23T04:46:11.979Z,-0.50
2019-02-23T04:48:38.021Z,-0.60
2019-02-23T04:51:13.989Z,-0.60
2019-02-23T04:53:32.063Z,-0.60
2019-02-23T04:55:58.115Z,-0.70
2019-02-23T04:58:24.214Z,-0.90
2019-02-23T05:00:50.265Z,-0.70
2019-02-23T05:03:16.321Z,-0.90
2019-02-23T05:05:42.387Z,-1.00
2019-02-23T05:08:08.458Z,-1.00
2019-02-23T05:10:34.571Z,-1.00
2019-02-23T05:13:00.676Z,-1.10
2019-02-23T05:15:26.816Z,-1.00
2019-02-23T05:17:55.434Z,-1.00
2019-02-23T05:20:20.851Z,-1.10
2019-02-23T05:22:46.933Z,-1.10
2019-02-23T05:25:13.023Z,-1.10
2019-02-23T05:27:39.185Z,-1.10
2019-02-23T05:30:08.467Z,-1.30
2019-02-23T05:32:34.681Z,-1.30
2019-02-23T05:35:00.801Z,-1.20
2019-02-23T05:37:26.937Z,-1.30
2019-02-23T05:39:53.002Z,-1.20
2019-02-23T05:42:19.122Z,-1.30
2019-02-23T05:44:45.247Z,-1.20
2019-02-23T05:47:11.432Z,-1.20
2019-02-23T05:49:37.502Z,-1.20
2019-02-23T05:52:03.598Z,-1.20
2019-02-23T05:54:29.687Z,-1.20
2019-02-23T05:56:55.753Z,-1.40
2019-02-23T05:59:21.835Z,-1.30
2019-02-23T06:01:47.909Z,-1.40
2019-02-23T06:04:13.990Z,-1.40
2019-02-23T06:06:40.072Z,-1.40
2019-02-23T06:09:06.241Z,-1.40
2019-02-23T06:11:32.315Z,-1.40
2019-02-23T06:13:58.411Z,-1.50
2019-02-23T06:16:24.480Z,-1.50
2019-02-23T06:18:50.566Z,-1.50
2019-02-23T06:21:16.714Z,-1.50
2019-02-23T06:23:42.802Z,-1.40
2019-02-23T06:26:08.877Z,-1.40
2019-02-23T06:28:34.934Z,-1.40
2019-02-23T06:31:01.039Z,-1.40
2019-02-23T06:33:27.098Z,-1.50
2019-02-23T06:35:53.190Z,-1.50
2019-02-23T06:38:19.259Z,-1.50
2019-02-23T06:40:45.342Z,-1.50
2019-02-23T06:43:11.427Z,-1.40
2019-02-23T06:45:37.509Z,-1.40
2019-02-23T06:48:03.691Z,-1.40
2019-02-23T06:50:29.776Z,-1.40
2019-02-23T06:53:09.202Z,-1.50
2019-02-23T06:55:35.299Z,-1.00
2019-02-23T06:58:01.664Z,-1.40
2019-02-23T07:00:27.726Z,-1.30
2019-02-23T07:02:53.811Z,-1.30
2019-02-23T07:05:19.875Z,-1.20
2019-02-23T07:07:46.064Z,-1.00
2019-02-23T07:10:12.981Z,-0.90
2019-02-23T07:12:39.058Z,-0.90
2019-02-23T07:15:07.147Z,-1.00
2019-02-23T07:17:33.308Z,-1.00
2019-02-23T07:19:59.391Z,-1.00
2019-02-23T07:22:25.459Z,-1.00
2019-02-23T07:24:51.553Z,-0.80
2019-02-23T07:27:17.618Z,-0.90
2019-02-23T07:29:43.682Z,-0.80
2019-02-23T07:32:09.763Z,-0.70
2019-02-23T07:34:35.835Z,-0.60
2019-02-23T07:37:01.934Z,-0.60
2019-02-23T07:39:27.995Z,-0.60
2019-02-23T07:41:54.071Z,-0.60
2019-02-23T07:44:20.132Z,-0.50
2019-02-23T07:46:46.207Z,-0.40
2019-02-23T07:49:12.286Z,-0.20
2019-02-23T07:51:38.390Z,0.00
2019-02-23T07:54:04.475Z,0.10
2019-02-23T07:56:30.563Z,0.20
2019-02-23T07:58:56.627Z,0.20
2019-02-23T08:01:22.695Z,0.20
2019-02-23T08:03:48.779Z,0.30
2019-02-23T08:06:14.841Z,0.30
2019-02-23T08:08:40.935Z,0.30
2019-02-23T08:11:06.991Z,0.10
2019-02-23T08:13:33.055Z,0.20
2019-02-23T08:15:59.155Z,0.30
2019-02-23T08:18:25.227Z,0.50
2019-02-23T08:20:51.323Z,0.60
2019-02-23T08:23:17.415Z,0.80
2019-02-23T08:25:43.576Z,1.00
2019-02-23T08:28:09.658Z,1.10
2019-02-23T08:30:35.900Z,1.30
2019-02-23T08:33:02.079Z,1.40
2019-02-23T08:35:28.144Z,1.30
2019-02-23T08:37:54.251Z,1.30
2019-02-23T08:40:20.319Z,1.20
2019-02-23T08:42:46.465Z,1.30
2019-02-23T08:45:12.674Z,1.30
2019-02-23T08:47:38.868Z,1.50
2019-02-23T08:50:08.431Z,1.60
2019-02-23T08:52:34.534Z,1.80
2019-02-23T08:55:00.623Z,1.90
2019-02-23T08:57:26.807Z,2.30
2019-02-23T08:59:52.875Z,2.40
2019-02-23T09:02:18.963Z,2.50
2019-02-23T09:04:45.126Z,2.50
2019-02-23T09:07:11.224Z,2.50
2019-02-23T09:09:37.291Z,2.80
2019-02-23T09:12:03.378Z,2.80
2019-02-23T09:14:29.567Z,3.00
2019-02-23T09:16:55.631Z,2.80
2019-02-23T09:19:21.698Z,3.00
2019-02-23T09:21:47.784Z,3.00
2019-02-23T09:24:13.848Z,3.10
2019-02-23T09:26:40.015Z,3.30
2019-02-23T09:29:06.268Z,3.50
2019-02-23T09:31:32.351Z,3.80
2019-02-23T09:33:58.524Z,3.90
2019-02-23T09:36:24.607Z,4.10
2019-02-23T09:38:50.704Z,4.30
2019-02-23T09:41:16.878Z,4.30
2019-02-23T09:43:43.003Z,4.30
2019-02-23T09:46:09.068Z,4.40
2019-02-23T09:48:35.157Z,4.60
2019-02-23T09:51:01.247Z,4.50
2019-02-23T09:53:27.367Z,4.70
2019-02-23T09:55:53.519Z,4.70
2019-02-23T09:58:19.587Z,4.70
2019-02-23T10:00:45.723Z,5.00
2019-02-23T10:03:11.789Z,4.80
2019-02-23T10:05:38.307Z,4.60
2019-02-23T10:08:04.543Z,4.40
2019-02-23T10:10:30.607Z,4.50
2019-02-23T10:12:56.710Z,4.60
2019-02-23T10:15:22.937Z,4.70
2019-02-23T10:17:49.007Z,4.70
2019-02-23T10:20:15.095Z,4.70
2019-02-23T10:22:41.159Z,4.60
2019-02-23T10:25:07.338Z,4.80
2019-02-23T10:27:33.402Z,5.00
2019-02-23T10:29:59.472Z,5.30
2019-02-23T10:32:25.626Z,5.50
2019-02-23T10:34:51.699Z,5.80
2019-02-23T10:37:17.779Z,5.60
2019-02-23T10:39:43.842Z,5.60
2019-02-23T10:42:09.912Z,5.50
2019-02-23T10:44:36.005Z,5.40
2019-02-23T10:47:02.075Z,5.40
2019-02-23T10:49:28.156Z,5.60
2019-02-23T10:51:54.231Z,5.60
2019-02-23T10:54:20.282Z,5.50
2019-02-23T10:56:46.362Z,5.40
2019-02-23T10:59:12.423Z,5.40
2019-02-23T11:01:38.623Z,5.50
2019-02-23T11:04:04.795Z,5.70
2019-02-23T11:06:30.914Z,5.60
2019-02-23T11:08:57.052Z,5.80
2019-02-23T11:11:23.208Z,5.80
2019-02-23T11:13:49.325Z,5.80
2019-02-23T11:16:15.491Z,5.80
2019-02-23T11:18:41.552Z,5.60
2019-02-23T11:21:08.027Z,5.60
2019-02-23T11:23:43.690Z,5.60
2019-02-23T11:26:02.383Z,5.60
2019-02-23T11:28:28.545Z,5.70
2019-02-23T11:30:54.598Z,5.60
2019-02-23T11:33:20.670Z,5.70
2019-02-23T11:35:46.821Z,5.70
2019-02-23T11:38:12.879Z,5.60
2019-02-23T11:40:38.945Z,5.90
2019-02-23T11:43:05.015Z,6.00
2019-02-23T11:45:31.214Z,5.90
2019-02-23T11:47:57.401Z,5.80
2019-02-23T11:50:23.489Z,5.60
2019-02-23T11:52:49.810Z,5.50
2019-02-23T11:55:15.876Z,5.50
2019-02-23T11:57:41.982Z,5.60
2019-02-23T12:00:10.257Z,5.50
2019-02-23T12:02:36.381Z,5.80
2019-02-23T12:05:02.972Z,5.90
2019-02-23T12:07:29.126Z,6.20
2019-02-23T12:09:55.207Z,6.50
2019-02-23T12:12:21.293Z,6.50
2019-02-23T12:14:47.360Z,6.50
2019-02-23T12:17:13.454Z,6.50
2019-02-23T12:19:39.542Z,6.50
2019-02-23T12:22:12.280Z,6.60
2019-02-23T12:24:33.679Z,6.70
2019-02-23T12:26:59.748Z,7.00
2019-02-23T12:29:25.835Z,6.90
2019-02-23T12:31:51.895Z,7.10
2019-02-23T12:34:17.967Z,7.00
2019-02-23T12:36:44.047Z,7.10
2019-02-23T12:39:10.119Z,7.10
2019-02-23T12:41:36.211Z,7.00
2019-02-23T12:44:02.376Z,6.90
2019-02-23T12:46:28.466Z,6.80
2019-02-23T12:48:54.602Z,6.60
2019-02-23T12:51:20.772Z,6.90
2019-02-23T12:53:46.859Z,7.30
2019-02-23T12:56:12.976Z,7.90
2019-02-23T12:58:39.134Z,8.60
2019-02-23T13:01:05.245Z,9.20
2019-02-23T13:03:31.311Z,9.80
2019-02-23T13:05:57.382Z,10.50
2019-02-23T13:08:27.295Z,10.90
2019-02-23T13:10:53.441Z,11.70
2019-02-23T13:13:34.903Z,12.00
2019-02-23T13:16:13.628Z,11.80
2019-02-23T13:18:49.462Z,11.80
2019-02-23T13:21:40.522Z,12.00
2019-02-23T13:24:28.157Z,12.20
2019-02-23T13:27:14.908Z,12.20
2019-02-23T13:30:07.482Z,12.40
2019-02-23T13:32:49.785Z,12.60
2019-02-23T13:35:37.652Z,12.30
2019-02-23T13:38:16.032Z,12.40
2019-02-23T13:41:10.130Z,12.60
2019-02-23T13:43:45.807Z,12.60
2019-02-23T13:46:49.394Z,12.60
2019-02-23T13:49:24.977Z,12.70
2019-02-23T13:52:11.699Z,12.90
2019-02-23T13:55:02.407Z,13.30
2019-02-23T13:57:44.532Z,14.30
2019-02-23T14:00:19.688Z,12.40
2019-02-23T14:03:21.793Z,12.40
2019-02-23T14:06:17.803Z,12.40
2019-02-23T14:09:21.519Z,12.30
2019-02-23T14:12:11.355Z,12.70
2019-02-23T14:14:44.170Z,13.20
2019-02-23T14:17:34.018Z,13.60
2019-02-23T14:20:12.926Z,13.50
2019-02-23T14:23:06.898Z,13.40
2019-02-23T14:25:45.355Z,13.40
2019-02-23T14:28:24.447Z,13.60
2019-02-23T14:31:03.444Z,13.50
2019-02-23T14:33:45.106Z,13.60
2019-02-23T14:36:21.295Z,13.70
2019-02-23T14:39:09.520Z,13.80
2019-02-23T14:41:48.679Z,13.70
2019-02-23T14:44:18.660Z,13.70
2019-02-23T14:47:00.682Z,14.00
2019-02-23T14:49:53.049Z,14.10
2019-02-23T14:52:52.849Z,14.10
2019-02-23T14:55:25.532Z,13.70
2019-02-23T14:58:10.754Z,13.30
2019-02-23T15:00:43.165Z,13.30
2019-02-23T15:03:40.583Z,12.90
2019-02-23T15:06:38.191Z,12.90
2019-02-23T15:09:33.542Z,13.20
2019-02-23T15:12:09.199Z,13.70
2019-02-23T15:15:06.287Z,14.10
2019-02-23T15:17:42.383Z,14.30
2019-02-23T15:20:21.297Z,14.30
2019-02-23T15:22:56.945Z,13.80
2019-02-23T15:25:45.240Z,13.60
2019-02-23T15:28:39.571Z,13.40
2019-02-23T15:31:32.264Z,13.20
2019-02-23T15:34:14.271Z,12.20
2019-02-23T15:37:00.851Z,12.10
2019-02-23T15:39:49.224Z,11.70
2019-02-23T15:42:39.074Z,10.80
2019-02-23T15:45:25.992Z,10.10
2019-02-23T15:47:58.666Z,9.50
2019-02-23T15:50:24.907Z,9.10
2019-02-23T15:52:51.115Z,9.50
2019-02-23T15:55:25.684Z,10.10
2019-02-23T15:57:45.243Z,10.50
2019-02-23T16:00:11.605Z,11.00
2019-02-23T16:02:37.707Z,11.10
2019-02-23T16:05:04.178Z,11.00
2019-02-23T16:07:30.250Z,10.70
2019-02-23T16:09:56.399Z,10.60
2019-02-23T16:12:22.506Z,10.50
2019-02-23T16:14:48.592Z,10.00
2019-02-23T16:17:14.697Z,9.30
2019-02-23T16:19:40.868Z,8.20
2019-02-23T16:22:06.946Z,7.50
2019-02-23T16:24:33.015Z,6.80
2019-02-23T16:26:59.086Z,6.20
2019-02-23T16:29:25.166Z,5.70
2019-02-23T16:31:51.260Z,5.30
2019-02-23T16:34:17.346Z,5.10
2019-02-23T16:36:43.434Z,4.80
2019-02-23T16:39:09.933Z,4.50
2019-02-23T16:41:36.275Z,4.20
2019-02-23T16:44:02.373Z,3.40
2019-02-23T16:46:28.447Z,3.80
2019-02-23T16:48:54.542Z,3.60
2019-02-23T16:51:20.631Z,3.50
2019-02-23T16:53:48.872Z,3.40
2019-02-23T16:56:14.709Z,3.20
2019-02-23T16:58:40.840Z,3.00
2019-02-23T17:01:06.945Z,2.80
2019-02-23T17:03:32.999Z,2.70
2019-02-23T17:05:59.075Z,2.60
2019-02-23T17:08:25.144Z,2.50
2019-02-23T17:10:51.222Z,2.30
2019-02-23T17:13:17.291Z,2.20
2019-02-23T17:15:43.405Z,2.30
2019-02-23T17:18:09.471Z,2.20
2019-02-23T17:20:35.697Z,2.10
2019-02-23T17:23:02.260Z,2.10
2019-02-23T17:25:28.445Z,2.10
2019-02-23T17:27:54.591Z,1.90
2019-02-23T17:30:20.652Z,1.90
2019-02-23T17:32:46.724Z,1.80
2019-02-23T17:35:12.791Z,1.70
2019-02-23T17:37:38.899Z,1.70
2019-02-23T17:40:06.350Z,1.70
2019-02-23T17:42:32.402Z,1.60
2019-02-23T17:44:58.564Z,1.60
2019-02-23T17:47:24.675Z,1.50
2019-02-23T17:49:51.031Z,1.40
2019-02-23T17:52:17.132Z,1.40
2019-02-23T17:54:43.188Z,1.30
2019-02-23T17:57:09.419Z,1.30
2019-02-23T17:59:35.531Z,1.30
2019-02-23T18:02:01.615Z,1.20
2019-02-23T18:04:27.679Z,1.10
2019-02-23T18:06:53.743Z,1.10
2019-02-23T18:09:19.843Z,1.00
2019-02-23T18:11:45.986Z,1.00
2019-02-23T18:14:12.076Z,1.00
2019-02-23T18:16:38.153Z,0.90
2019-02-23T18:19:04.238Z,0.80
2019-02-23T18:21:30.437Z,0.80
2019-02-23T18:23:56.602Z,0.80
2019-02-23T18:26:22.805Z,0.70
2019-02-23T18:28:48.869Z,0.60
2019-02-23T18:31:14.937Z,0.60
2019-02-23T18:33:41.023Z,0.50
2019-02-23T18:36:07.117Z,0.40
2019-02-23T18:38:33.176Z,0.40
2019-02-23T18:40:59.251Z,0.30
2019-02-23T18:43:25.322Z,0.30
2019-02-23T18:45:51.410Z,0.30
2019-02-23T18:48:17.519Z,0.20
2019-02-23T18:50:43.602Z,0.30
2019-02-23T18:53:09.703Z,0.20
2019-02-23T18:55:41.195Z,0.10
2019-02-23T18:58:03.855Z,0.10
2019-02-23T19:00:29.935Z,0.00
2019-02-23T19:02:56.031Z,0.00
2019-02-23T19:05:22.110Z,0.00
2019-02-23T19:07:48.181Z,0.00
2019-02-23T19:10:14.248Z,0.00
2019-02-23T19:12:40.322Z,-0.10
2019-02-23T19:15:09.275Z,-0.20
2019-02-23T19:17:35.335Z,-0.10
2019-02-23T19:20:01.501Z,-0.20
2019-02-23T19:22:27.567Z,-0.20
2019-02-23T19:24:53.634Z,-0.10
2019-02-23T19:27:19.740Z,-0.20
2019-02-23T19:29:45.790Z,-0.30
2019-02-23T19:32:11.892Z,-0.30
2019-02-23T19:34:37.987Z,-0.30
2019-02-23T19:37:04.063Z,-0.40
2019-02-23T19:39:30.127Z,-0.40
2019-02-23T19:41:56.206Z,-0.50
2019-02-23T19:44:22.275Z,-0.60
2019-02-23T19:46:50.051Z,-0.60
2019-02-23T19:49:16.209Z,-0.50
2019-02-23T19:51:42.326Z,-0.50
2019-02-23T19:54:08.495Z,-0.50
2019-02-23T19:56:34.619Z,-0.60
2019-02-23T19:59:00.901Z,-0.60
2019-02-23T20:01:27.018Z,-0.60
2019-02-23T20:03:53.131Z,-0.60
2019-02-23T20:06:19.195Z,-0.60
2019-02-23T20:08:45.598Z,-0.70
2019-02-23T20:11:11.792Z,-0.60
2019-02-23T20:13:37.871Z,-0.70
2019-02-23T20:16:03.937Z,-0.80
2019-02-23T20:18:30.014Z,-0.70
2019-02-23T20:20:56.087Z,-0.70
2019-02-23T20:23:22.163Z,-0.70
2019-02-23T20:25:48.260Z,-0.70
2019-02-23T20:28:14.438Z,-0.80
2019-02-23T20:31:00.387Z,-0.90
2019-02-23T20:33:26.471Z,-1.20
2019-02-23T20:35:52.539Z,-0.90
2019-02-23T20:38:18.611Z,-0.90
2019-02-23T20:40:44.686Z,-0.90
2019-02-23T20:43:10.777Z,-1.00
2019-02-23T20:45:36.905Z,-1.00
2019-02-23T20:48:03.077Z,-1.00
2019-02-23T20:50:29.156Z,-1.00
2019-02-23T20:52:55.356Z,-1.00
2019-02-23T20:55:21.416Z,-1.00
2019-02-23T20:57:47.599Z,-1.10
2019-02-23T21:00:13.766Z,-1.00
2019-02-23T21:02:39.882Z,-1.10
2019-02-23T21:05:08.914Z,-1.20
2019-02-23T21:07:35.195Z,-1.10
2019-02-23T21:10:01.368Z,-1.10
2019-02-23T21:12:27.436Z,-1.20
2019-02-23T21:14:53.526Z,-1.20
2019-02-23T21:17:19.588Z,-1.20
2019-02-23T21:19:45.662Z,-1.20
2019-02-23T21:22:11.760Z,-1.20
2019-02-23T21:24:37.839Z,-1.10
2019-02-23T21:27:03.919Z,-1.20
2019-02-23T21:29:30.000Z,-1.30
2019-02-23T21:31:56.099Z,-1.20
2019-02-23T21:34:22.173Z,-1.20
2019-02-23T21:36:48.243Z,-1.30
2019-02-23T21:39:14.335Z,-1.30
2019-02-23T21:41:40.399Z,-1.30
2019-02-23T21:44:06.482Z,-1.40
2019-02-23T21:46:32.548Z,-1.40
2019-02-23T21:48:58.634Z,-1.40
2019-02-23T21:51:24.698Z,-1.40
2019-02-23T21:53:50.809Z,-1.40
2019-02-23T21:56:16.912Z,-1.50
2019-02-23T21:58:43.091Z,-1.50
2019-02-23T22:01:09.155Z,-1.50
2019-02-23T22:03:35.241Z,-1.60
2019-02-23T22:06:01.305Z,-1.60
2019-02-23T22:08:27.470Z,-1.60
2019-02-23T22:10:53.559Z,-1.70
2019-02-23T22:13:19.628Z,-1.60
2019-02-23T22:15:45.721Z,-1.60
2019-02-23T22:18:11.798Z,-1.60
2019-02-23T22:20:37.851Z,-1.60
2019-02-23T22:23:03.979Z,-1.60
2019-02-23T22:25:30.120Z,-1.60
2019-02-23T22:27:56.233Z,-1.60
2019-02-23T22:30:22.403Z,-1.60
2019-02-23T22:32:48.573Z,-1.60
2019-02-23T22:35:14.759Z,-1.60
2019-02-23T22:37:40.907Z,-1.60
2019-02-23T22:40:07.008Z,-1.60
2019-02-23T22:42:33.070Z,-1.60
2019-02-23T22:44:59.146Z,-1.70
2019-02-23T22:47:25.226Z,-1.70
2019-02-23T22:49:51.323Z,-1.60
2019-02-23T22:52:17.411Z,-1.60
2019-02-23T22:54:43.486Z,-1.70
2019-02-23T22:57:09.550Z,-1.70
2019-02-23T22:59:35.631Z,-1.70
2019-02-23T23:02:01.692Z,-1.80
2019-02-23T23:04:27.791Z,-1.70
2019-02-23T23:06:53.875Z,-1.80
2019-02-23T23:09:20.152Z,-1.70
2019-02-23T23:11:46.255Z,-1.80
2019-02-23T23:14:12.307Z,-1.80
2019-02-23T23:16:38.397Z,-1.80
2019-02-23T23:19:04.651Z,-1.80
2019-02-23T23:21:30.733Z,-1.80
2019-02-23T23:23:56.787Z,-1.80
2019-02-23T23:26:22.876Z,-1.80
2019-02-23T23:28:48.945Z,-1.80
2019-02-23T23:31:15.131Z,-1.80
2019-02-23T23:33:41.195Z,-1.80
2019-02-23T23:36:07.271Z,-1.80
2019-02-23T23:38:33.352Z,-1.90
2019-02-23T23:40:59.430Z,-1.90
2019-02-23T23:43:25.499Z,-1.90
2019-02-23T23:45:51.578Z,-1.90
2019-02-23T23:48:17.647Z,-1.90
2019-02-23T23:50:43.724Z,-2.00
2019-02-23T23:53:09.787Z,-2.00
2019-02-23T23:55:35.883Z,-2.00
2019-02-23T23:58:01.953Z,-2.00
